createdAt,value
2017-06-18T00:00:39.738Z,1012.31
2017-06-18T00:03:03.921Z,1012.29
2017-06-18T00:05:28.149Z,1012.29
2017-06-18T00:07:43.910Z,1012.25
2017-06-18T00:10:08.141Z,1012.28
2017-06-18T00:12:23.925Z,1012.25
2017-06-18T00:14:48.125Z,1012.28
2017-06-18T00:17:12.342Z,1012.24
2017-06-18T00:19:36.559Z,1012.23
2017-06-18T00:22:00.754Z,1012.27
2017-06-18T00:24:24.958Z,1012.23
2017-06-18T00:26:49.150Z,1012.19
2017-06-18T00:29:13.303Z,1012.17
2017-06-18T00:31:37.491Z,1012.12
2017-06-18T00:34:01.703Z,1012.15
2017-06-18T00:36:25.883Z,1012.13
2017-06-18T00:38:50.055Z,1012.12
2017-06-18T00:41:14.213Z,1012.12
2017-06-18T00:43:38.377Z,1012.03
2017-06-18T00:45:54.062Z,1012.03
2017-06-18T00:47:55.470Z,1012.05
2017-06-18T00:50:02.773Z,1011.99
2017-06-18T00:52:27.926Z,1011.93
2017-06-18T00:54:20.879Z,1011.9
2017-06-18T00:56:45.063Z,1011.93
2017-06-18T00:59:00.778Z,1011.87
2017-06-18T01:01:24.935Z,1011.85
2017-06-18T01:03:40.652Z,1011.85
2017-06-18T01:06:04.796Z,1011.87
2017-06-18T01:08:12.066Z,1011.84
2017-06-18T01:10:19.352Z,1011.84
2017-06-18T01:12:43.473Z,1011.88
2017-06-18T01:15:07.571Z,1011.98
2017-06-18T01:17:31.712Z,1011.9
2017-06-18T01:19:47.414Z,1011.89
2017-06-18T01:22:11.497Z,1011.92
2017-06-18T01:24:35.623Z,1011.88
2017-06-18T01:26:51.295Z,1011.93
2017-06-18T01:29:15.405Z,1011.92
2017-06-18T01:31:39.547Z,1011.92
2017-06-18T01:34:03.664Z,1011.88
2017-06-18T01:36:27.786Z,1011.89
2017-06-18T01:38:51.918Z,1011.88
2017-06-18T01:41:16.068Z,1011.85
2017-06-18T01:43:31.776Z,1011.93
2017-06-18T01:45:55.928Z,1011.87
2017-06-18T01:48:20.079Z,1011.84
2017-06-18T01:50:30.025Z,1011.89
2017-06-18T01:52:54.173Z,1011.85
2017-06-18T01:54:56.390Z,1011.85
2017-06-18T01:57:20.546Z,1011.83
2017-06-18T01:59:44.645Z,1011.81
2017-06-18T02:02:08.757Z,1011.77
2017-06-18T02:04:32.837Z,1011.82
2017-06-18T02:06:42.782Z,1011.8
2017-06-18T02:08:58.477Z,1011.78
2017-06-18T02:11:14.159Z,1011.8
2017-06-18T02:13:29.814Z,1011.85
2017-06-18T02:15:53.927Z,1011.84
2017-06-18T02:18:18.033Z,1011.86
2017-06-18T02:20:33.691Z,1011.86
2017-06-18T02:22:57.776Z,1011.78
2017-06-18T02:25:21.862Z,1011.79
2017-06-18T02:27:45.959Z,1011.79
2017-06-18T02:30:01.604Z,1011.76
2017-06-18T02:32:25.648Z,1011.74
2017-06-18T02:34:49.751Z,1011.73
2017-06-18T02:37:13.831Z,1011.75
2017-06-18T02:39:37.888Z,1011.79
2017-06-18T02:41:53.527Z,1011.85
2017-06-18T02:44:17.602Z,1011.87
2017-06-18T02:46:41.702Z,1011.92
2017-06-18T02:49:05.813Z,1011.9
2017-06-18T02:51:29.894Z,1011.86
2017-06-18T02:53:54.017Z,1011.92
2017-06-18T02:56:09.671Z,1011.93
2017-06-18T02:58:33.811Z,1011.94
2017-06-18T03:00:57.958Z,1011.96
2017-06-18T03:03:22.067Z,1011.93
2017-06-18T03:05:46.200Z,1011.91
2017-06-18T03:08:10.351Z,1011.92
2017-06-18T03:10:11.753Z,1011.9
2017-06-18T03:12:35.896Z,1011.9
2017-06-18T03:15:00.090Z,1011.91
2017-06-18T03:17:24.218Z,1011.91
2017-06-18T03:19:39.887Z,1011.93
2017-06-18T03:21:55.523Z,1011.9
2017-06-18T03:24:19.649Z,1011.91
2017-06-18T03:26:43.776Z,1011.89
2017-06-18T03:29:07.910Z,1011.86
2017-06-18T03:31:23.591Z,1011.86
2017-06-18T03:33:47.718Z,1011.85
2017-06-18T03:36:11.811Z,1011.84
2017-06-18T03:38:35.915Z,1011.89
2017-06-18T03:41:00.034Z,1011.9
2017-06-18T03:43:15.709Z,1011.82
2017-06-18T03:45:39.812Z,1011.92
2017-06-18T03:47:55.480Z,1011.87
2017-06-18T03:50:19.571Z,1011.89
2017-06-18T03:52:35.228Z,1011.86
2017-06-18T03:54:59.302Z,1011.89
2017-06-18T03:57:10.234Z,1011.87
2017-06-18T03:59:34.373Z,1011.87
2017-06-18T04:01:44.265Z,1011.87
2017-06-18T04:04:08.372Z,1011.88
2017-06-18T04:06:32.467Z,1011.91
2017-06-18T04:08:48.121Z,1011.92
2017-06-18T04:11:12.228Z,1011.89
2017-06-18T04:13:27.890Z,1011.85
2017-06-18T04:15:52.008Z,1011.89
2017-06-18T04:18:07.663Z,1011.9
2017-06-18T04:20:31.743Z,1011.85
2017-06-18T04:22:47.370Z,1011.85
2017-06-18T04:25:11.470Z,1011.84
2017-06-18T04:27:35.563Z,1011.8
2017-06-18T04:29:59.643Z,1011.79
2017-06-18T04:32:23.742Z,1011.77
2017-06-18T04:34:47.850Z,1011.8
2017-06-18T04:36:40.807Z,1011.81
2017-06-18T04:39:04.921Z,1011.83
2017-06-18T04:41:29.035Z,1011.83
2017-06-18T04:43:53.143Z,1011.82
2017-06-18T04:46:17.257Z,1011.84
2017-06-18T04:48:41.345Z,1011.89
2017-06-18T04:51:05.427Z,1011.9
2017-06-18T04:53:29.476Z,1011.84
2017-06-18T04:55:53.615Z,1011.86
2017-06-18T04:58:17.716Z,1011.87
2017-06-18T05:00:41.798Z,1011.88
2017-06-18T05:03:05.899Z,1011.86
2017-06-18T05:05:30.009Z,1011.85
2017-06-18T05:07:54.122Z,1011.84
2017-06-18T05:10:18.250Z,1011.84
2017-06-18T05:12:42.393Z,1011.87
2017-06-18T05:15:06.540Z,1011.83
2017-06-18T05:17:30.684Z,1011.89
2017-06-18T05:19:54.778Z,1011.89
2017-06-18T05:22:10.452Z,1011.92
2017-06-18T05:24:26.143Z,1011.9
2017-06-18T05:26:50.269Z,1011.94
2017-06-18T05:29:14.347Z,1011.89
2017-06-18T05:31:38.467Z,1011.96
2017-06-18T05:34:02.559Z,1011.94
2017-06-18T05:36:26.626Z,1011.94
2017-06-18T05:38:42.276Z,1011.93
2017-06-18T05:41:06.392Z,1011.96
2017-06-18T05:43:30.480Z,1011.99
2017-06-18T05:45:54.590Z,1011.93
2017-06-18T05:48:18.738Z,1011.97
2017-06-18T05:50:42.836Z,1011.96
2017-06-18T05:53:06.991Z,1011.98
2017-06-18T05:55:16.940Z,1011.95
2017-06-18T05:57:41.128Z,1011.94
2017-06-18T06:00:05.292Z,1012.01
2017-06-18T06:02:29.451Z,1011.99
2017-06-18T06:04:53.611Z,1011.99
2017-06-18T06:07:17.761Z,1011.98
2017-06-18T06:09:41.934Z,1011.97
2017-06-18T06:11:40.773Z,1011.98
2017-06-18T06:14:04.939Z,1011.97
2017-06-18T06:16:20.681Z,1011.99
2017-06-18T06:18:44.861Z,1012.04
2017-06-18T06:21:09.041Z,1012.06
2017-06-18T06:23:33.238Z,1012.04
2017-06-18T06:25:57.456Z,1012
2017-06-18T06:28:13.255Z,1012.08
2017-06-18T06:30:37.492Z,1012.1
2017-06-18T06:33:01.746Z,1012.09
2017-06-18T06:35:26.021Z,1012.17
2017-06-18T06:37:41.903Z,1012.13
2017-06-18T06:39:57.827Z,1012.14
2017-06-18T06:42:13.808Z,1012.22
2017-06-18T06:44:38.318Z,1012.2
2017-06-18T06:47:02.853Z,1012.25
2017-06-18T06:49:27.490Z,1012.36
2017-06-18T06:51:43.697Z,1012.36
2017-06-18T06:53:53.849Z,1012.32
2017-06-18T06:56:18.684Z,1012.21
2017-06-18T06:58:43.550Z,1012.36
2017-06-18T07:00:59.973Z,1012.38
2017-06-18T07:03:16.463Z,1012.41
2017-06-18T07:05:24.565Z,1012.36
2017-06-18T07:07:32.670Z,1012.28
2017-06-18T07:09:49.317Z,1012.13
2017-06-18T07:12:14.536Z,1012.23
2017-06-18T07:14:39.777Z,1012.18
2017-06-18T07:16:56.574Z,1012.22
2017-06-18T07:19:06.877Z,1012.27
2017-06-18T07:21:32.279Z,1012.28
2017-06-18T07:23:34.459Z,1012.27
2017-06-18T07:25:59.821Z,1012.35
2017-06-18T07:28:25.223Z,1012.26
2017-06-18T07:30:50.596Z,1012.17
2017-06-18T07:33:07.722Z,1012.22
2017-06-18T07:35:33.097Z,1012.28
2017-06-18T07:37:58.463Z,1012.21
2017-06-18T07:40:23.831Z,1012.24
2017-06-18T07:42:49.198Z,1012.15
2017-06-18T07:44:50.930Z,1012.21
2017-06-18T07:47:07.905Z,1012.21
2017-06-18T07:49:33.358Z,1012.2
2017-06-18T07:51:41.789Z,1012.25
2017-06-18T07:53:58.704Z,1012.18
2017-06-18T07:56:24.133Z,1012.14
2017-06-18T07:58:32.572Z,1012.19
2017-06-18T08:00:49.542Z,1012.3
2017-06-18T08:03:15.022Z,1012.24
2017-06-18T08:05:40.525Z,1012.13
2017-06-18T08:07:42.779Z,1012.17
2017-06-18T08:10:08.330Z,1012.08
2017-06-18T08:12:25.396Z,1012.13
2017-06-18T08:14:50.932Z,1012.13
2017-06-18T08:17:07.970Z,1012.17
2017-06-18T08:19:33.542Z,1011.88
2017-06-18T08:21:59.052Z,1012.03
2017-06-18T08:24:07.467Z,1011.88
2017-06-18T08:26:32.973Z,1012.08
2017-06-18T08:28:58.468Z,1012.15
2017-06-18T08:31:23.964Z,1012.07
2017-06-18T08:33:49.431Z,1011.93
2017-06-18T08:36:14.938Z,1011.97
2017-06-18T08:38:40.419Z,1012.11
2017-06-18T08:40:57.368Z,1011.94
2017-06-18T08:43:22.758Z,1011.97
2017-06-18T08:45:22.609Z,1012.07
2017-06-18T08:47:48.097Z,1012.09
2017-06-18T08:50:13.596Z,1012.05
2017-06-18T08:52:39.094Z,1012.01
2017-06-18T08:54:49.469Z,1012.04
2017-06-18T08:56:59.810Z,1011.84
2017-06-18T08:59:25.338Z,1012.06
2017-06-18T09:01:50.841Z,1011.76
2017-06-18T09:04:16.326Z,1011.83
2017-06-18T09:06:26.700Z,1011.9
2017-06-18T09:08:52.242Z,1011.85
2017-06-18T09:11:09.242Z,1011.88
2017-06-18T09:13:34.778Z,1012
2017-06-18T09:16:00.345Z,1011.89
2017-06-18T09:18:25.857Z,1011.62
2017-06-18T09:20:27.585Z,1011.59
2017-06-18T09:22:53.033Z,1011.79
2017-06-18T09:25:09.869Z,1011.77
2017-06-18T09:27:35.255Z,1011.76
2017-06-18T09:29:45.633Z,1011.73
2017-06-18T09:32:02.576Z,1011.83
2017-06-18T09:34:19.482Z,1011.89
2017-06-18T09:36:44.939Z,1011.89
2017-06-18T09:39:10.381Z,1011.67
2017-06-18T09:41:35.797Z,1011.78
2017-06-18T09:44:01.223Z,1011.67
2017-06-18T09:46:09.628Z,1011.58
2017-06-18T09:48:35.002Z,1011.53
2017-06-18T09:51:00.327Z,1011.56
2017-06-18T09:55:10.099Z,1011.42
2017-06-18T09:57:35.369Z,1011.75
2017-06-18T10:00:00.566Z,1011.61
2017-06-18T10:02:25.772Z,1011.55
2017-06-18T10:04:50.931Z,1011.52
2017-06-18T10:07:07.590Z,1011.44
2017-06-18T10:09:32.787Z,1011.53
2017-06-18T10:11:57.968Z,1011.45
2017-06-18T10:14:14.601Z,1011.45
2017-06-18T10:16:31.213Z,1011.36
2017-06-18T10:18:56.292Z,1011.34
2017-06-18T10:21:21.387Z,1011.19
2017-06-18T10:23:46.487Z,1011.19
2017-06-18T10:26:03.050Z,1011.16
2017-06-18T10:28:28.118Z,1011.15
2017-06-18T10:30:53.118Z,1011.25
2017-06-18T10:33:18.129Z,1011.24
2017-06-18T10:35:45.128Z,1011.08
2017-06-18T10:38:10.114Z,1011.12
2017-06-18T10:40:26.577Z,1011.13
2017-06-18T10:42:51.468Z,1011.14
2017-06-18T10:45:07.927Z,1011.23
2017-06-18T10:47:32.818Z,1011.18
2017-06-18T10:49:57.742Z,1011.08
2017-06-18T10:52:22.612Z,1011
2017-06-18T10:54:47.518Z,1011
2017-06-18T10:57:03.874Z,1011.06
2017-06-18T10:59:28.729Z,1010.96
2017-06-18T11:01:45.099Z,1010.82
2017-06-18T11:04:09.928Z,1010.83
2017-06-18T11:06:34.757Z,1010.83
2017-06-18T11:08:34.122Z,1010.96
2017-06-18T11:10:58.940Z,1010.75
2017-06-18T11:13:23.724Z,1010.85
2017-06-18T11:15:48.485Z,1010.69
2017-06-18T11:18:13.283Z,1010.67
2017-06-18T11:20:29.570Z,1010.7
2017-06-18T11:22:54.394Z,1010.62
2017-06-18T11:25:19.171Z,1010.55
2017-06-18T11:27:43.928Z,1010.56
2017-06-18T11:30:08.744Z,1010.46
2017-06-18T11:32:33.540Z,1010.51
2017-06-18T11:34:35.106Z,1010.49
2017-06-18T11:36:59.897Z,1010.5
2017-06-18T11:39:24.703Z,1010.52
2017-06-18T11:41:49.453Z,1010.41
2017-06-18T11:43:51.008Z,1010.34
2017-06-18T11:46:15.829Z,1010.46
2017-06-18T11:48:32.144Z,1010.39
2017-06-18T11:50:56.911Z,1010.26
2017-06-18T11:53:13.159Z,1010.26
2017-06-18T11:55:37.895Z,1010.36
2017-06-18T11:58:02.641Z,1010.19
2017-06-18T12:00:27.354Z,1010.18
2017-06-18T12:02:52.104Z,1010.17
2017-06-18T12:04:59.868Z,1010.16
2017-06-18T12:07:24.627Z,1010.18
2017-06-18T12:09:40.907Z,1010.15
2017-06-18T12:12:05.676Z,1010.12
2017-06-18T12:14:30.384Z,1010.07
2017-06-18T12:16:55.175Z,1010.11
2017-06-18T12:19:11.407Z,1010.15
2017-06-18T12:21:36.161Z,1010.1
2017-06-18T12:24:00.965Z,1010.04
2017-06-18T12:26:25.685Z,1010.03
2017-06-18T12:28:50.450Z,1010.01
2017-06-18T12:31:15.132Z,1009.98
2017-06-18T12:33:39.872Z,1009.82
2017-06-18T12:36:04.558Z,1009.85
2017-06-18T12:38:29.253Z,1009.82
2017-06-18T12:40:53.972Z,1009.82
2017-06-18T12:42:55.535Z,1009.81
2017-06-18T12:45:20.275Z,1009.9
2017-06-18T12:47:45.038Z,1009.88
2017-06-18T12:49:52.824Z,1009.82
2017-06-18T12:52:17.548Z,1009.87
2017-06-18T12:54:42.265Z,1009.71
2017-06-18T12:57:07.018Z,1009.67
2017-06-18T12:59:31.753Z,1009.7
2017-06-18T13:01:41.896Z,1009.64
2017-06-18T13:04:06.695Z,1009.72
2017-06-18T13:06:22.989Z,1009.71
2017-06-18T13:08:16.067Z,1009.76
2017-06-18T13:10:23.908Z,1009.74
2017-06-18T13:12:40.210Z,1009.61
2017-06-18T13:15:04.953Z,1009.64
2017-06-18T13:17:21.228Z,1009.58
2017-06-18T13:19:37.502Z,1009.61
2017-06-18T13:22:02.271Z,1009.57
2017-06-18T13:24:27.035Z,1009.58
2017-06-18T13:26:51.827Z,1009.56
2017-06-18T13:29:08.114Z,1009.48
2017-06-18T13:31:24.415Z,1009.56
2017-06-18T13:33:49.198Z,1009.65
2017-06-18T13:36:13.972Z,1009.52
2017-06-18T13:38:38.686Z,1009.6
2017-06-18T13:41:03.449Z,1009.53
2017-06-18T13:43:19.752Z,1009.55
2017-06-18T13:45:44.480Z,1009.45
2017-06-18T13:48:09.229Z,1009.5
2017-06-18T13:50:33.990Z,1009.48
2017-06-18T13:52:44.902Z,1009.43
2017-06-18T13:54:46.938Z,1009.4
2017-06-18T13:57:11.745Z,1009.47
2017-06-18T13:59:36.546Z,1009.46
2017-06-18T14:02:01.345Z,1009.39
2017-06-18T14:04:26.163Z,1009.42
2017-06-18T14:06:50.947Z,1009.31
2017-06-18T14:09:15.735Z,1009.31
2017-06-18T14:11:40.535Z,1009.38
2017-06-18T14:14:05.317Z,1009.32
2017-06-18T14:16:30.088Z,1009.25
2017-06-18T14:18:46.317Z,1009.23
2017-06-18T14:21:11.090Z,1009.33
2017-06-18T14:23:35.877Z,1009.28
2017-06-18T14:26:00.642Z,1009.25
2017-06-18T14:28:02.694Z,1009.25
2017-06-18T14:30:27.496Z,1009.23
2017-06-18T14:32:52.249Z,1009.27
2017-06-18T14:35:08.567Z,1009.21
2017-06-18T14:37:33.325Z,1009.25
2017-06-18T14:39:58.109Z,1009.13
2017-06-18T14:42:22.836Z,1009.19
2017-06-18T14:44:39.142Z,1009.08
2017-06-18T14:47:03.924Z,1009.03
2017-06-18T14:49:20.224Z,1009
2017-06-18T14:51:44.989Z,1009.13
2017-06-18T14:54:09.769Z,1009.11
2017-06-18T14:56:34.531Z,1009.01
2017-06-18T14:58:59.318Z,1009.07
2017-06-18T15:01:24.058Z,1009.14
2017-06-18T15:03:48.778Z,1009.04
2017-06-18T15:06:05.038Z,1009.15
2017-06-18T15:08:29.770Z,1009.06
2017-06-18T15:10:55.540Z,1008.98
2017-06-18T15:13:11.839Z,1008.97
2017-06-18T15:15:28.085Z,1008.89
2017-06-18T15:17:52.832Z,1008.91
2017-06-18T15:20:00.566Z,1008.89
2017-06-18T15:22:16.849Z,1009.02
2017-06-18T15:24:41.617Z,1008.96
2017-06-18T15:27:06.326Z,1008.85
2017-06-18T15:29:31.087Z,1008.97
2017-06-18T15:31:55.833Z,1008.8
2017-06-18T15:34:20.573Z,1008.84
2017-06-18T15:36:45.301Z,1008.81
2017-06-18T15:39:01.577Z,1008.93
2017-06-18T15:41:26.352Z,1008.85
2017-06-18T15:43:51.078Z,1008.76
2017-06-18T15:46:15.765Z,1008.79
2017-06-18T15:48:23.551Z,1008.7
2017-06-18T15:50:25.086Z,1008.69
2017-06-18T15:52:49.810Z,1008.69
2017-06-18T15:55:14.612Z,1008.72
2017-06-18T15:57:39.403Z,1008.7
2017-06-18T16:00:04.196Z,1008.62
2017-06-18T16:02:28.989Z,1008.63
2017-06-18T16:04:45.276Z,1008.61
2017-06-18T16:07:10.059Z,1008.69
2017-06-18T16:09:26.343Z,1008.56
2017-06-18T16:13:26.977Z,1008.53
2017-06-18T16:15:51.743Z,1008.56
2017-06-18T16:18:16.491Z,1008.53
2017-06-18T16:20:41.269Z,1008.56
2017-06-18T16:23:06.074Z,1008.57
2017-06-18T16:25:31.053Z,1008.56
2017-06-18T16:27:47.197Z,1008.51
2017-06-18T16:30:13.023Z,1008.49
2017-06-18T16:32:29.336Z,1008.5
2017-06-18T16:34:54.031Z,1008.46
2017-06-18T16:36:56.073Z,1008.47
2017-06-18T16:39:12.361Z,1008.49
2017-06-18T16:41:28.664Z,1008.46
2017-06-18T16:43:53.441Z,1008.53
2017-06-18T16:46:01.277Z,1008.56
2017-06-18T16:48:25.991Z,1008.46
2017-06-18T16:50:50.763Z,1008.41
2017-06-18T16:53:15.541Z,1008.51
2017-06-18T16:55:40.285Z,1008.46
2017-06-18T16:58:05.051Z,1008.47
2017-06-18T17:00:29.768Z,1008.47
2017-06-18T17:02:54.573Z,1008.51
2017-06-18T17:05:10.865Z,1008.53
2017-06-18T17:07:19.775Z,1008.45
2017-06-18T17:09:44.570Z,1008.51
2017-06-18T17:12:09.367Z,1008.48
2017-06-18T17:14:34.058Z,1008.48
2017-06-18T17:16:58.848Z,1008.55
2017-06-18T17:19:23.646Z,1008.48
2017-06-18T17:21:48.449Z,1008.44
2017-06-18T17:24:04.672Z,1008.45
2017-06-18T17:26:20.973Z,1008.37
2017-06-18T17:28:45.749Z,1008.42
2017-06-18T17:31:10.440Z,1008.39
2017-06-18T17:33:18.142Z,1008.46
2017-06-18T17:35:34.441Z,1008.35
2017-06-18T17:37:59.139Z,1008.45
2017-06-18T17:40:23.820Z,1008.36
2017-06-18T17:42:48.521Z,1008.37
2017-06-18T17:45:13.224Z,1008.4
2017-06-18T17:47:37.905Z,1008.43
2017-06-18T17:50:02.539Z,1008.41
2017-06-18T17:52:18.839Z,1008.34
2017-06-18T17:54:20.896Z,1008.5
2017-06-18T17:56:31.485Z,1008.5
2017-06-18T17:58:56.237Z,1008.51
2017-06-18T18:01:20.885Z,1008.54
2017-06-18T18:03:45.638Z,1008.55
2017-06-18T18:05:47.683Z,1008.56
2017-06-18T18:08:03.899Z,1008.49
2017-06-18T18:10:28.590Z,1008.48
2017-06-18T18:12:44.828Z,1008.46
2017-06-18T18:15:09.597Z,1008.49
2017-06-18T18:17:34.279Z,1008.46
2017-06-18T18:19:58.962Z,1008.5
2017-06-18T18:22:23.678Z,1008.49
2017-06-18T18:24:48.328Z,1008.44
2017-06-18T18:27:13.071Z,1008.48
2017-06-18T18:29:29.288Z,1008.45
2017-06-18T18:31:53.961Z,1008.44
2017-06-18T18:34:18.661Z,1008.48
2017-06-18T18:36:43.350Z,1008.47
2017-06-18T18:38:59.481Z,1008.43
2017-06-18T18:41:24.139Z,1008.41
2017-06-18T18:43:40.249Z,1008.41
2017-06-18T18:46:04.925Z,1008.41
2017-06-18T18:48:21.056Z,1008.36
2017-06-18T18:50:45.647Z,1008.37
2017-06-18T18:52:47.755Z,1008.34
2017-06-18T18:55:12.480Z,1008.37
2017-06-18T18:57:28.665Z,1008.38
2017-06-18T18:59:53.270Z,1008.36
2017-06-18T19:02:17.958Z,1008.31
2017-06-18T19:04:42.541Z,1008.34
2017-06-18T19:07:07.151Z,1008.34
2017-06-18T19:09:31.852Z,1008.4
2017-06-18T19:11:56.450Z,1008.36
2017-06-18T19:14:21.070Z,1008.38
2017-06-18T19:16:45.734Z,1008.32
2017-06-18T19:19:10.318Z,1008.33
2017-06-18T19:21:34.846Z,1008.32
2017-06-18T19:23:50.948Z,1008.34
2017-06-18T19:26:15.493Z,1008.3
2017-06-18T19:28:40.096Z,1008.34
2017-06-18T19:31:04.633Z,1008.34
2017-06-18T19:33:14.700Z,1008.41
2017-06-18T19:35:39.331Z,1008.4
2017-06-18T19:38:03.921Z,1008.39
2017-06-18T19:40:28.416Z,1008.4
2017-06-18T19:42:35.990Z,1008.47
2017-06-18T19:46:27.750Z,1008.53
2017-06-18T19:50:27.913Z,1008.53
2017-06-18T19:54:29.170Z,1008.56
2017-06-18T19:58:20.869Z,1008.6
2017-06-18T20:00:31.387Z,1008.61
2017-06-18T20:03:02.798Z,1008.67
2017-06-18T20:05:12.834Z,1008.7
2017-06-18T20:09:13.427Z,1008.69
2017-06-18T20:11:37.871Z,1008.69
2017-06-18T20:14:02.372Z,1008.66
2017-06-18T20:16:27.185Z,1008.71
2017-06-18T20:18:51.667Z,1008.67
2017-06-18T20:21:01.712Z,1008.65
2017-06-18T20:23:26.116Z,1008.72
2017-06-18T20:25:50.504Z,1008.75
2017-06-18T20:28:14.952Z,1008.74
2017-06-18T20:30:39.294Z,1008.79
2017-06-18T20:33:04.782Z,1008.79
2017-06-18T20:35:29.274Z,1008.77
2017-06-18T20:37:53.751Z,1008.82
2017-06-18T20:40:18.068Z,1008.79
2017-06-18T20:42:42.552Z,1008.78
2017-06-18T20:44:58.526Z,1008.74
2017-06-18T20:47:22.949Z,1008.82
2017-06-18T20:49:24.887Z,1008.85
2017-06-18T20:51:50.286Z,1008.87
2017-06-18T20:54:06.224Z,1008.91
2017-06-18T20:56:31.285Z,1008.95
2017-06-18T20:58:55.685Z,1008.94
2017-06-18T21:01:21.029Z,1008.89
2017-06-18T21:03:45.470Z,1008.95
2017-06-18T21:06:10.159Z,1008.96
2017-06-18T21:08:34.879Z,1008.95
2017-06-18T21:10:59.255Z,1008.96
2017-06-18T21:13:23.654Z,1008.98
2017-06-18T21:15:39.550Z,1008.99
2017-06-18T21:18:03.837Z,1008.99
2017-06-18T21:20:28.359Z,1008.97
2017-06-18T21:22:52.655Z,1008.93
2017-06-18T21:25:08.531Z,1008.96
2017-06-18T21:27:33.074Z,1008.94
2017-06-18T21:29:57.359Z,1008.9
2017-06-18T21:31:59.474Z,1008.94
2017-06-18T21:34:23.826Z,1008.91
2017-06-18T21:36:48.457Z,1008.92
2017-06-18T21:39:13.001Z,1008.96
2017-06-18T21:41:37.200Z,1008.95
2017-06-18T21:44:01.592Z,1008.95
2017-06-18T21:46:17.470Z,1008.92
2017-06-18T21:48:41.864Z,1008.93
2017-06-18T21:51:06.137Z,1008.95
2017-06-18T21:53:13.591Z,1008.92
2017-06-18T21:55:37.821Z,1008.9
2017-06-18T21:58:02.114Z,1008.86
2017-06-18T22:00:04.051Z,1008.86
2017-06-18T22:02:28.460Z,1008.77
2017-06-18T22:04:52.762Z,1008.77
2017-06-18T22:07:17.136Z,1008.76
2017-06-18T22:09:33.034Z,1008.77
2017-06-18T22:11:57.320Z,1008.72
2017-06-18T22:14:21.707Z,1008.76
2017-06-18T22:16:37.542Z,1008.78
2017-06-18T22:19:01.882Z,1008.79
2017-06-18T22:21:26.179Z,1008.74
2017-06-18T22:23:28.112Z,1008.74
2017-06-18T22:25:52.410Z,1008.71
2017-06-18T22:28:16.691Z,1008.72
2017-06-18T22:30:40.981Z,1008.75
2017-06-18T22:33:05.274Z,1008.71
2017-06-18T22:35:30.483Z,1008.72
2017-06-18T22:37:54.772Z,1008.68
2017-06-18T22:40:10.660Z,1008.65
2017-06-18T22:42:12.584Z,1008.65
2017-06-18T22:44:36.908Z,1008.63
2017-06-18T22:46:38.810Z,1008.63
2017-06-18T22:49:03.159Z,1008.66
2017-06-18T22:51:27.462Z,1008.6
2017-06-18T22:53:51.752Z,1008.57
2017-06-18T22:56:17.031Z,1008.54
2017-06-18T22:58:43.269Z,1008.59
2017-06-18T23:01:08.582Z,1008.56
2017-06-18T23:03:32.866Z,1008.58
2017-06-18T23:05:57.155Z,1008.55
2017-06-18T23:08:21.448Z,1008.53
2017-06-18T23:10:37.291Z,1008.56
2017-06-18T23:13:01.513Z,1008.58
2017-06-18T23:15:26.824Z,1008.58
2017-06-18T23:17:51.114Z,1008.58
2017-06-18T23:20:15.396Z,1008.49
2017-06-18T23:22:40.700Z,1008.51
2017-06-18T23:25:06.943Z,1008.51
2017-06-18T23:27:22.723Z,1008.51
2017-06-18T23:29:48.031Z,1008.49
2017-06-18T23:32:12.328Z,1008.46
2017-06-18T23:34:37.641Z,1008.47
2017-06-18T23:37:02.852Z,1008.5
2017-06-18T23:39:27.039Z,1008.45
2017-06-18T23:41:52.232Z,1008.45
2017-06-18T23:44:16.412Z,1008.46
2017-06-18T23:46:41.596Z,1008.43
2017-06-18T23:48:57.303Z,1008.39
2017-06-18T23:51:21.606Z,1008.4
2017-06-18T23:53:37.383Z,1008.36
2017-06-18T23:56:03.622Z,1008.36
2017-06-18T23:58:27.900Z,1008.36
